Pays
Station

 

Conditions  météo  pour  Kuusamo  -  Finlande    Finlande

  
-19 °C
    
 
 

METAR pour Kuusamo :

EFKS 212250Z AUTO 31003KT 9999 -FZDZSN OVC036 M19/M21 Q1004

 

Voici le bulletin pour Kuusamo - Finlande.
 
Le bulletin a été fait il y a 17 minutes, à 22:50 UTC .
Le vent soufflait à la vitesse de 1.5 mètres par seconde de Nord-ouest (310°).
 
La température était de -19 °C, avec un point de rosée à -21 °C.
La température ressentie était de -22 °C.
 
La pression atmosphérique était de 1004 hPa.
L'humidité relative était de 84.1%.
 
Le ciel était nuageux à partir d'une hauteur de 1097 mètres
 
La visibilité globale était de supérieure à 10 kilomètres.
 
Actuellement givrant léger/legère bruine, neige.

 
 
 

Pays :   A   B   C   D   E   F   G   H   I   J   K   L   M   N   O   P   Q   R   S   T   U   V   W   Y   Z

 

Partenaires :  Info Météo avec Met'info
Météo Marine avec MeteoMarine.net
Infos Site  |  Infos Légales  |  Crédits  |  Confidentialité
Contactez-nous  |  Ajouter aux favoris
© 2013-2019 METAR - Tous droits réservés